Florida, Indiana
Current Conditions -  °F | °C
As of 1:53 PM on Monday 20 Oct 2014 (Local Time) from KHUF Reporting Station
Clear Clear  
Wind Chill: 19°   Ceiling: Unl
Heat Index: 19°   Visibility: 10mi
Dew Point: 11°   Wind: 7mph
Humidity: 60%   Direction: 250°WSW
Pressure: 29.88"   Gusts: 17mph
Location:  39.6386°N, 87.3045°W
Report Text: KHUF 201753Z 25006G15KT 10SM CLR 19/11 A2988 RMK AO2 SLP118 60000 T01890111 10194 20100 58016
Loading
Personal Weather Stations






























Interactive Weather Map
Tropical Storm Tracking
New forecast layout! Learn more

10-Day Weather Forecast

Advertisements
Track Severe Weather on mobile